Time;durP1;ratioP1;P1;durP2;ratioP2;P2;SDS_P1;SDS_P2;PMS_P1;PMS_P2;Temp;Humidity;BMP_temperature;BMP_pressure;BME280_temperature;BME280_humidity;BME280_pressure;Samples;Min_cycle;Max_cycle;Signal;HPM_P1;HPM_P2
2023/07/31 06:51:56;;;;;;;;;5.67;4.67;;;;;19.33;57.77;101111.72;6288589;22;46798;-91
2023/07/31 06:54:21;;;;;;;;;4.67;3.67;;;;;19.35;57.81;101113.31;6279517;22;45359;-93
2023/07/31 06:56:47;;;;;;;;;5.33;4.00;;;;;19.40;57.95;101115.66;6279010;22;45690;-94
2023/07/31 06:59:12;;;;;;;;;7.00;5.00;;;;;19.45;57.91;101112.69;6278072;22;48359;-94
2023/07/31 07:01:37;;;;;;;;;5.67;4.00;;;;;19.48;58.24;101112.47;6278876;22;45317;-93
2023/07/31 07:04:03;;;;;;;;;7.00;5.00;;;;;19.48;58.22;101099.28;6280216;22;45261;-93
2023/07/31 07:06:28;;;;;;;;;6.00;6.00;;;;;19.49;57.95;101101.00;6281362;22;45373;-94
2023/07/31 07:08:54;;;;;;;;;6.67;5.00;;;;;19.55;57.77;101107.63;6280473;22;47196;-93
2023/07/31 07:11:19;;;;;;;;;6.33;5.00;;;;;19.55;58.26;101102.34;6279913;22;45205;-92
2023/07/31 07:13:44;;;;;;;;;5.00;4.00;;;;;19.56;58.13;101096.97;6280484;22;45298;-93
2023/07/31 07:16:10;;;;;;;;;5.00;5.00;;;;;19.56;58.00;101096.13;6280732;22;45635;-93
2023/07/31 07:18:35;;;;;;;;;9.33;6.67;;;;;19.59;58.25;101098.56;6279743;22;46848;-93
2023/07/31 07:21:02;;;;;;;;;7.33;5.67;;;;;19.60;57.88;101095.81;6279241;22;45238;-93
2023/07/31 07:23:27;;;;;;;;;4.33;4.33;;;;;19.65;58.32;101094.63;6306286;22;45303;-95
2023/07/31 07:25:53;;;;;;;;;6.33;6.00;;;;;19.70;58.49;101082.81;6279929;22;45211;-94
2023/07/31 07:28:18;;;;;;;;;6.33;5.00;;;;;19.76;57.74;101087.69;6279658;22;47174;-93
2023/07/31 07:30:43;;;;;;;;;5.00;5.00;;;;;19.80;58.35;101084.84;6279672;22;45434;-94
2023/07/31 07:33:09;;;;;;;;;7.67;6.33;;;;;19.87;58.46;101084.28;6280823;22;45247;-95
2023/07/31 07:35:35;;;;;;;;;7.00;5.33;;;;;19.95;57.95;101086.38;6280256;22;44886;-94
2023/07/31 07:38:04;;;;;;;;;9.33;7.00;;;;;20.01;57.77;101093.06;6280431;22;47344;-95
2023/07/31 07:40:30;;;;;;;;;8.00;5.00;;;;;20.05;57.87;101083.97;6278576;22;45339;-93
2023/07/31 07:42:55;;;;;;;;;6.67;5.67;;;;;20.09;57.56;101081.97;6305184;22;45385;-93
2023/07/31 07:45:20;;;;;;;;;6.00;5.67;;;;;20.12;57.69;101079.94;6280452;22;45155;-93
2023/07/31 07:47:46;;;;;;;;;6.00;6.00;;;;;20.20;57.95;101084.69;6305674;22;47469;-92
2023/07/31 07:50:11;;;;;;;;;5.00;5.00;;;;;20.25;57.54;101079.06;6305970;22;45981;-94
2023/07/31 07:52:37;;;;;;;;;7.67;5.00;;;;;20.32;57.42;101082.94;6279948;22;45211;-94
2023/07/31 07:55:03;;;;;;;;;6.33;5.33;;;;;20.34;57.15;101081.03;6280520;22;45271;-94
2023/07/31 07:57:29;;;;;;;;;7.67;4.67;;;;;20.35;56.79;101084.50;6280485;22;47360;-94
2023/07/31 07:59:54;;;;;;;;;5.67;5.67;;;;;20.37;56.82;101083.44;6280047;22;45599;-92
2023/07/31 08:02:19;;;;;;;;;7.33;7.00;;;;;20.36;57.32;101059.81;6280413;22;45354;-94
2023/07/31 08:04:52;;;;;;;;;6.33;6.00;;;;;20.43;57.15;101061.84;6280145;22;45395;-93
2023/07/31 08:07:17;;;;;;;;;5.00;5.00;;;;;20.48;56.99;101066.84;6306746;22;45400;-93
2023/07/31 08:09:43;;;;;;;;;8.33;4.33;;;;;20.55;56.49;101067.22;6279179;22;45378;-92
2023/07/31 08:12:08;;;;;;;;;7.33;5.00;;;;;20.58;57.10;101074.06;6280107;22;45341;-94
2023/07/31 08:14:34;;;;;;;;;8.00;5.33;;;;;20.61;56.70;101058.00;6278915;22;45235;-93
2023/07/31 08:17:00;;;;;;;;;8.33;4.67;;;;;20.63;56.60;101080.72;6279111;22;48048;-95
2023/07/31 08:19:25;;;;;;;;;5.67;5.00;;;;;20.67;56.46;101081.34;6280123;22;45330;-94
2023/07/31 08:21:58;;;;;;;;;5.33;5.00;;;;;20.69;56.46;101079.44;6279529;22;45258;-94
2023/07/31 08:24:23;;;;;;;;;8.33;4.67;;;;;20.75;56.04;101073.69;6280308;22;45256;-93
2023/07/31 08:26:51;;;;;;;;;8.00;6.33;;;;;20.81;56.34;101075.88;6278288;22;48110;-94
2023/07/31 08:29:17;;;;;;;;;8.00;5.67;;;;;20.89;55.93;101070.06;6280270;22;45323;-93
2023/07/31 08:31:45;;;;;;;;;7.33;6.67;;;;;20.98;55.56;101076.44;6279728;22;45404;-93
2023/07/31 08:34:11;;;;;;;;;8.00;4.00;;;;;21.03;55.82;101071.66;6280807;22;45433;-94
2023/07/31 08:36:36;;;;;;;;;8.00;7.33;;;;;21.08;55.20;101066.00;6278221;22;47080;-93
2023/07/31 08:39:01;;;;;;;;;8.00;6.33;;;;;21.15;55.50;101077.81;6277836;22;45441;-92
2023/07/31 08:41:29;;;;;;;;;6.67;4.67;;;;;21.26;55.43;101065.56;6279388;22;45450;-93
2023/07/31 08:43:56;;;;;;;;;6.33;3.33;;;;;21.36;54.89;101054.16;6278862;22;45162;-94
2023/07/31 08:46:22;;;;;;;;;4.67;4.67;;;;;21.47;55.05;101045.38;6278990;22;47102;-93
2023/07/31 08:48:48;;;;;;;;;6.33;6.00;;;;;21.52;54.56;101038.91;6278643;22;45392;-93
2023/07/31 08:51:16;;;;;;;;;4.33;4.00;;;;;21.55;54.16;101036.00;6278690;22;44741;-95
2023/07/31 08:53:42;;;;;;;;;5.33;5.33;;;;;21.58;53.68;101049.84;6280075;22;45374;-94
2023/07/31 08:56:08;;;;;;;;;6.67;4.67;;;;;21.57;53.47;101045.50;6304284;22;47372;-94
2023/07/31 08:58:35;;;;;;;;;5.00;5.00;;;;;21.54;53.92;101051.06;6304524;22;46054;-93
2023/07/31 09:01:04;;;;;;;;;4.67;4.67;;;;;21.52;53.92;101049.50;6306242;22;45289;-95
2023/07/31 09:03:33;;;;;;;;;3.33;3.33;;;;;21.50;53.52;101060.19;6305176;22;45407;-94
2023/07/31 09:05:59;;;;;;;;;6.00;6.00;;;;;21.45;53.36;101052.63;6307057;22;46454;-94
2023/07/31 09:08:30;;;;;;;;;5.67;4.33;;;;;21.42;53.82;101054.66;6304525;22;46051;-93
2023/07/31 09:10:59;;;;;;;;;7.00;4.00;;;;;21.39;53.64;101039.88;6305111;22;45217;-94
2023/07/31 09:13:25;;;;;;;;;3.67;3.33;;;;;21.36;53.71;101032.16;6305524;22;45266;-94
2023/07/31 09:15:50;;;;;;;;;6.33;6.33;;;;;21.38;54.04;101059.31;6304286;22;46944;-92
2023/07/31 09:18:19;;;;;;;;;4.00;3.67;;;;;21.34;54.51;101066.66;6304351;22;45456;-92
2023/07/31 09:20:44;;;;;;;;;3.00;3.00;;;;;21.28;54.53;101066.31;6305140;22;45315;-96
2023/07/31 09:23:12;;;;;;;;;3.00;3.00;;;;;21.24;54.84;101070.97;6305587;22;45203;-93
2023/07/31 09:25:38;;;;;;;;;5.00;4.00;;;;;21.22;54.33;101068.47;6272857;22;45381;-95
2023/07/31 09:28:06;;;;;;;;;4.67;4.00;;;;;21.17;54.48;101070.63;6302898;22;45262;-93
2023/07/31 09:30:48;;;;;;;;;6.00;4.67;;;;;21.11;54.35;101071.09;6303635;22;44729;-95
2023/07/31 09:33:14;;;;;;;;;4.67;3.67;;;;;21.09;55.00;101057.09;6305305;22;45373;-96
2023/07/31 09:35:42;;;;;;;;;3.33;3.33;;;;;21.16;54.83;101076.03;6304594;22;47215;-94
2023/07/31 09:38:15;;;;;;;;;5.67;4.67;;;;;21.16;54.38;101050.38;6304810;22;45525;-94
2023/07/31 09:40:42;;;;;;;;;4.00;4.00;;;;;21.19;54.66;101065.19;6278866;22;45314;-94
2023/07/31 09:43:10;;;;;;;;;5.67;4.00;;;;;21.20;54.98;101053.66;6305732;22;45505;-93
2023/07/31 09:45:40;;;;;;;;;5.33;4.00;;;;;21.25;55.11;101069.19;6304896;22;47812;-96
2023/07/31 09:48:13;;;;;;;;;4.67;4.33;;;;;21.22;55.13;101065.81;6303828;22;45493;-94
2023/07/31 09:50:41;;;;;;;;;6.33;3.33;;;;;21.19;54.91;101057.25;6304768;22;45401;-95
2023/07/31 09:53:08;;;;;;;;;5.00;5.00;;;;;21.14;55.96;101054.97;6303414;22;45355;-94
2023/07/31 09:55:34;;;;;;;;;6.33;4.00;;;;;21.07;56.51;101064.34;6305034;22;47992;-93
2023/07/31 09:58:07;;;;;;;;;5.00;4.00;;;;;21.02;56.39;101056.72;6302009;22;46079;-92
2023/07/31 10:00:32;;;;;;;;;5.00;5.00;;;;;21.01;57.23;101048.94;6303224;22;45353;-93
2023/07/31 10:03:06;;;;;;;;;5.00;5.00;;;;;21.01;57.09;101051.56;6305354;22;45373;-95
2023/07/31 10:05:53;;;;;;;;;6.67;5.00;;;;;20.95;56.88;101050.22;6304049;22;47285;-93
2023/07/31 10:08:23;;;;;;;;;6.67;5.33;;;;;20.94;57.10;101043.25;6303607;22;45384;-93
2023/07/31 10:10:49;;;;;;;;;3.67;3.67;;;;;20.92;57.31;101050.47;6304367;22;45388;-95
2023/07/31 10:13:15;;;;;;;;;7.33;5.33;;;;;20.89;56.88;101053.31;6304970;22;45741;-94
2023/07/31 10:15:42;;;;;;;;;6.33;5.00;;;;;20.84;56.58;101029.84;6303831;22;47183;-94
2023/07/31 10:18:08;;;;;;;;;3.33;3.33;;;;;20.81;56.59;101012.41;6303621;22;45567;-92
2023/07/31 10:20:35;;;;;;;;;5.67;4.00;;;;;20.79;56.72;101005.53;6328996;22;45415;-94
2023/07/31 10:23:01;;;;;;;;;6.67;4.00;;;;;20.72;56.78;100999.00;6332338;22;44781;-93
2023/07/31 10:25:27;;;;;;;;;9.00;5.33;;;;;20.71;56.43;101006.13;6286419;22;48135;-94
2023/07/31 10:27:54;;;;;;;;;5.00;5.00;;;;;20.70;56.68;101010.56;6304828;22;45247;-95
2023/07/31 10:30:24;;;;;;;;;4.00;4.00;;;;;20.67;57.29;101002.00;6303204;22;45250;-93
2023/07/31 10:32:52;;;;;;;;;8.00;6.33;;;;;20.64;58.35;101016.31;6305089;22;45445;-94
2023/07/31 10:35:18;;;;;;;;;8.67;7.00;;;;;20.60;58.00;101004.25;6305090;22;46972;-94
2023/07/31 10:37:44;;;;;;;;;7.67;6.33;;;;;20.60;58.54;100996.31;6304267;22;45332;-95
2023/07/31 10:40:23;;;;;;;;;7.00;6.67;;;;;20.61;58.96;100998.03;6305419;22;45179;-94
2023/07/31 10:42:54;;;;;;;;;7.67;4.33;;;;;20.67;59.60;101002.88;6304961;22;44753;-93
2023/07/31 10:45:37;;;;;;;;;5.33;5.00;;;;;20.72;59.68;100999.00;6304459;22;47341;-94
2023/07/31 10:48:16;;;;;;;;;5.00;4.00;;;;;20.74;59.22;100994.47;6305154;22;45249;-94
2023/07/31 10:50:55;;;;;;;;;8.33;6.67;;;;;20.76;59.54;101001.34;6304104;22;45411;-94
2023/07/31 10:53:32;;;;;;;;;9.33;5.33;;;;;20.83;59.76;101001.72;6303549;22;45428;-93
2023/07/31 10:56:05;;;;;;;;;7.00;6.67;;;;;20.83;59.56;100997.25;6305354;22;47110;-93
2023/07/31 10:58:32;;;;;;;;;10.00;7.00;;;;;20.84;59.44;100998.09;6304643;22;45231;-94
2023/07/31 11:01:04;;;;;;;;;6.00;4.33;;;;;20.87;59.12;100986.50;6299967;22;45258;-93
2023/07/31 11:03:43;;;;;;;;;6.67;6.00;;;;;20.89;59.27;100977.47;6303485;22;45408;-93
2023/07/31 11:06:09;;;;;;;;;6.33;5.33;;;;;20.96;59.63;100991.06;6300255;22;47936;-94
2023/07/31 11:08:45;;;;;;;;;8.33;6.67;;;;;21.04;59.44;101012.50;6303523;22;44670;-94
2023/07/31 11:11:13;;;;;;;;;8.00;6.00;;;;;21.01;59.42;101001.31;6301829;22;45404;-96
2023/07/31 11:13:50;;;;;;;;;5.67;5.00;;;;;21.00;59.33;101008.38;6301772;22;45262;-93
2023/07/31 11:16:16;;;;;;;;;6.00;6.00;;;;;20.95;59.82;101003.47;6302284;22;47938;-94
2023/07/31 11:18:45;;;;;;;;;7.00;6.33;;;;;20.95;60.19;101003.47;6301925;22;45304;-95
2023/07/31 11:21:15;;;;;;;;;3.33;3.33;;;;;20.95;59.57;100992.03;6302514;22;44878;-94
2023/07/31 11:23:41;;;;;;;;;8.67;7.67;;;;;20.95;60.34;100989.38;6301741;22;45471;-94
2023/07/31 11:26:07;;;;;;;;;6.00;6.00;;;;;20.92;59.85;100989.63;6301645;22;47062;-94
2023/07/31 11:28:34;;;;;;;;;7.67;7.00;;;;;20.84;60.25;100976.94;6301558;22;45356;-94
2023/07/31 11:31:00;;;;;;;;;7.00;7.00;;;;;20.81;60.74;100974.53;6301705;22;45333;-94
2023/07/31 11:33:25;;;;;;;;;7.00;7.00;;;;;20.83;60.97;100983.22;6303031;22;45362;-95
2023/07/31 11:35:51;;;;;;;;;9.00;8.67;;;;;20.79;60.81;100971.16;6302128;22;47060;-94
2023/07/31 11:38:36;;;;;;;;;7.33;6.67;;;;;20.82;60.58;100973.56;6301601;22;45443;-94
2023/07/31 11:41:04;;;;;;;;;5.67;5.67;;;;;20.88;60.93;100972.31;6299925;22;45392;-94
2023/07/31 11:43:30;;;;;;;;;8.33;8.00;;;;;20.93;60.56;100968.31;6301556;22;45307;-94
2023/07/31 11:45:58;;;;;;;;;9.67;8.33;;;;;21.00;60.89;100974.00;6301289;22;47379;-93
2023/07/31 11:48:26;;;;;;;;;7.33;7.00;;;;;21.09;60.88;100973.31;6276509;22;45380;-95
2023/07/31 11:51:03;;;;;;;;;9.00;6.00;;;;;21.18;60.78;100970.88;6302620;22;45293;-93
2023/07/31 11:53:43;;;;;;;;;6.33;5.33;;;;;21.26;60.37;100971.16;6306404;22;45330;-93
2023/07/31 11:56:11;;;;;;;;;7.67;6.67;;;;;21.30;60.56;100980.50;6307360;22;47040;-94
2023/07/31 11:58:38;;;;;;;;;8.00;8.00;;;;;21.33;59.55;100966.19;6307248;22;45406;-94
2023/07/31 12:01:53;;;;;;;;;8.33;6.33;;;;;21.35;59.70;100966.94;6306652;22;45464;-92
2023/07/31 12:04:36;;;;;;;;;7.67;6.33;;;;;21.36;60.12;100956.25;6242995;22;45323;-94
2023/07/31 12:07:02;;;;;;;;;7.00;7.00;;;;;21.41;59.94;100957.66;6217970;22;47020;-94
2023/07/31 12:09:27;;;;;;;;;9.67;7.67;;;;;21.44;60.06;100944.19;6243365;22;45315;-94
2023/07/31 12:11:52;;;;;;;;;11.00;7.00;;;;;21.48;59.79;100943.81;6218924;22;45386;-95
2023/07/31 12:14:25;;;;;;;;;7.67;7.00;;;;;21.53;59.86;100937.31;6218748;22;45377;-93
2023/07/31 12:16:59;;;;;;;;;7.00;6.00;;;;;21.52;59.17;100936.47;6218775;22;46468;-94
2023/07/31 12:19:29;;;;;;;;;7.00;6.33;;;;;21.53;59.42;100939.97;6218173;22;45294;-94
2023/07/31 12:21:57;;;;;;;;;6.00;5.67;;;;;21.52;58.85;100925.88;6217994;22;45294;-96
2023/07/31 12:24:24;;;;;;;;;10.00;7.00;;;;;21.51;58.41;100942.75;6243696;22;45648;-96
2023/07/31 12:26:49;;;;;;;;;5.67;4.67;;;;;21.51;58.66;100940.09;6217685;22;45530;-96
2023/07/31 12:29:35;;;;;;;;;6.00;6.00;;;;;21.49;58.43;100931.44;6237045;22;45295;-95
2023/07/31 12:32:01;;;;;;;;;3.67;3.67;;;;;21.43;59.17;100932.75;6257631;22;44674;-95
2023/07/31 12:34:26;;;;;;;;;5.33;5.00;;;;;21.39;58.92;100928.69;6254724;22;44885;-95
2023/07/31 12:36:53;;;;;;;;;7.67;6.00;;;;;21.34;59.32;100930.84;6252171;22;47143;-96
2023/07/31 12:39:22;;;;;;;;;3.00;2.67;;;;;21.31;58.83;100928.44;6251180;22;45329;-96
2023/07/31 12:41:51;;;;;;;;;8.67;5.33;;;;;21.27;58.89;100921.69;6293742;22;45312;-96
2023/07/31 12:44:17;;;;;;;;;7.67;6.00;;;;;21.21;59.29;100909.81;6310028;22;45272;-95
2023/07/31 12:47:07;;;;;;;;;4.67;4.33;;;;;21.12;59.04;100906.06;6309372;22;45755;-96
2023/07/31 12:49:32;;;;;;;;;6.00;4.67;;;;;21.06;59.11;100899.44;6307456;22;44723;-94
2023/07/31 12:51:57;;;;;;;;;4.33;4.33;;;;;21.05;59.29;100907.50;6307567;22;45540;-95
2023/07/31 12:54:26;;;;;;;;;9.67;7.33;;;;;21.03;59.72;100904.13;6307647;22;45266;-96
2023/07/31 12:56:51;;;;;;;;;8.00;6.33;;;;;21.05;59.83;100894.28;6306896;22;45935;-96
2023/07/31 12:59:17;;;;;;;;;8.33;5.00;;;;;21.06;60.21;100888.88;6307319;22;45407;-96
2023/07/31 13:01:42;;;;;;;;;9.00;7.00;;;;;21.08;59.62;100878.16;6307829;22;45439;-95
2023/07/31 13:04:08;;;;;;;;;4.00;4.00;;;;;21.12;59.85;100868.19;6308278;22;45530;-96
2023/07/31 13:06:34;;;;;;;;;5.67;5.00;;;;;21.15;59.39;100858.19;6334789;22;46533;-95
2023/07/31 13:08:59;;;;;;;;;5.67;5.67;;;;;21.17;59.41;100853.63;6308779;22;45270;-96
2023/07/31 13:11:24;;;;;;;;;9.33;5.67;;;;;21.20;58.74;100840.16;6307761;22;45416;-94
2023/07/31 13:13:50;;;;;;;;;5.00;5.00;;;;;21.23;59.23;100855.78;6307353;22;45250;-94
2023/07/31 13:16:15;;;;;;;;;6.33;4.67;;;;;21.25;58.86;100839.81;6308058;22;48172;-96
2023/07/31 13:18:41;;;;;;;;;7.00;6.67;;;;;21.27;58.96;100837.88;6307163;22;45258;-96
2023/07/31 13:21:06;;;;;;;;;10.33;5.00;;;;;21.30;58.57;100823.53;6308791;22;45360;-96
2023/07/31 13:23:32;;;;;;;;;6.00;5.00;;;;;21.33;57.87;100828.56;6309638;22;45382;-96
2023/07/31 13:25:57;;;;;;;;;6.33;6.33;;;;;21.37;57.74;100824.72;6286081;22;46845;-95
2023/07/31 13:28:24;;;;;;;;;7.00;6.67;;;;;21.38;58.04;100818.47;6307731;22;45136;-96
2023/07/31 13:30:49;;;;;;;;;5.33;4.33;;;;;21.42;57.68;100819.91;6308199;22;45232;-96
2023/07/31 13:33:15;;;;;;;;;6.00;5.67;;;;;21.52;57.89;100832.41;6307870;22;44752;-95
2023/07/31 13:35:40;;;;;;;;;5.67;5.00;;;;;21.53;57.87;100824.34;6306451;22;47105;-96
2023/07/31 13:38:05;;;;;;;;;5.67;5.67;;;;;21.59;57.91;100820.34;6307979;22;45296;-96
2023/07/31 13:40:31;;;;;;;;;4.33;4.00;;;;;21.59;57.58;100809.75;6307597;22;45282;-96
2023/07/31 13:42:56;;;;;;;;;4.67;4.67;;;;;21.63;57.72;100812.00;6335284;22;45333;-96
2023/07/31 13:45:22;;;;;;;;;6.33;6.00;;;;;21.67;57.53;100811.78;6308642;22;47154;-96
2023/07/31 13:47:47;;;;;;;;;4.67;3.33;;;;;21.70;57.51;100801.78;6307895;22;45304;-96
2023/07/31 13:50:12;;;;;;;;;7.33;4.33;;;;;21.74;57.74;100791.78;6306616;22;44754;-94
2023/07/31 13:52:38;;;;;;;;;6.33;6.33;;;;;21.82;57.20;100796.44;6306536;22;44785;-94
2023/07/31 13:55:03;;;;;;;;;5.33;5.33;;;;;21.82;57.17;100799.94;6306245;22;48111;-95
2023/07/31 13:57:29;;;;;;;;;6.00;6.00;;;;;21.84;57.34;100795.34;6307396;22;45462;-93
2023/07/31 13:59:54;;;;;;;;;5.00;5.00;;;;;21.87;57.01;100800.41;6333192;22;45254;-94
2023/07/31 14:02:19;;;;;;;;;6.00;5.33;;;;;21.86;56.79;100790.75;6307024;22;45339;-95
2023/07/31 14:04:45;;;;;;;;;5.33;3.67;;;;;21.84;56.67;100784.75;6306477;22;47348;-93
2023/07/31 14:07:10;;;;;;;;;7.67;5.00;;;;;21.88;57.31;100787.97;6306613;22;46022;-92
2023/07/31 14:09:36;;;;;;;;;4.33;4.33;;;;;21.90;56.60;100780.78;6307058;22;45187;-91
2023/07/31 14:12:01;;;;;;;;;4.00;4.00;;;;;21.92;56.77;100775.31;6306625;22;44850;-94
2023/07/31 14:14:27;;;;;;;;;3.67;3.67;;;;;21.97;56.52;100767.81;6332872;22;47457;-95
2023/07/31 14:16:52;;;;;;;;;6.33;3.00;;;;;22.01;56.75;100770.09;6306518;22;45189;-94
2023/07/31 14:19:17;;;;;;;;;3.67;3.67;;;;;22.06;56.88;100771.50;6307200;22;44808;-94
2023/07/31 14:21:43;;;;;;;;;4.00;4.00;;;;;22.08;57.36;100759.81;6308777;22;45209;-94
2023/07/31 14:24:08;;;;;;;;;5.00;5.00;;;;;22.09;57.34;100758.88;6306106;22;47206;-92
2023/07/31 14:26:33;;;;;;;;;3.67;3.67;;;;;22.08;57.70;100759.81;6305742;22;45419;-94
2023/07/31 14:28:59;;;;;;;;;3.00;3.00;;;;;22.06;57.93;100761.75;6306846;22;45154;-94
2023/07/31 14:31:24;;;;;;;;;4.67;3.67;;;;;22.02;58.51;100773.56;6307348;22;44819;-96
2023/07/31 14:33:50;;;;;;;;;6.67;5.00;;;;;21.94;58.79;100753.03;6308276;22;47209;-94
2023/07/31 14:36:15;;;;;;;;;3.00;3.00;;;;;21.85;58.35;100759.13;6308331;22;44775;-95
2023/07/31 14:38:40;;;;;;;;;3.67;3.67;;;;;21.76;58.91;100748.31;6306674;22;45182;-95
2023/07/31 14:41:22;;;;;;;;;2.00;1.67;;;;;21.71;59.51;100749.69;6317729;22;44857;-96
2023/07/31 14:43:53;;;;;;;;;3.00;3.00;;;;;21.69;59.71;100751.56;6294781;22;45630;-96
2023/07/31 14:46:18;;;;;;;;;4.00;3.00;;;;;21.65;59.83;100747.50;6318202;22;45280;-96
2023/07/31 14:48:44;;;;;;;;;5.67;4.33;;;;;21.58;60.10;100733.94;6320154;22;45321;-96
